Aviation Digital Data Service (ADDS)

Output produced by METARs form (1420 UTC 29 November 2022)
found at http://www.aviationweather.gov/metar/data/
 
METAR text: CYYF 291400Z VRB03KT 15SM SCT045 BKN170 M08/M14 A3007 RMK SC4AC3 SLP208
Conditions at: CYYF (PENTICTON AIRPOR, BC, CA) observed 1400 UTC 29 November 2022
Temperature: -8.0°C (18°F)
Dewpoint: -14.0°C ( 7°F) [RH = 62%]
Pressure (altimeter): 30.07 inches Hg (1018.4 mb)
[Sea-level pressure: 1020.8 mb]
Winds: variable direction winds at 3 MPH (3 knots; 1.5 m/s)
Visibility: 15 miles (24 km)
Ceiling: 17000 feet AGL
Clouds: scattered clouds at 4500 feet AGL
broken clouds at 17000 feet AGL
Weather: no significant weather observed at this time

METAR text: CYYF 291300Z 01005KT 15SM OVC041 M07/M15 A3009 RMK SC8 SLP214
Conditions at: CYYF (PENTICTON AIRPOR, BC, CA) observed 1300 UTC 29 November 2022
Temperature: -7.0°C (19°F)
Dewpoint: -15.0°C ( 5°F) [RH = 53%]
Pressure (altimeter): 30.09 inches Hg (1019.0 mb)
[Sea-level pressure: 1021.4 mb]
Winds: from the N (10 degrees) at 6 MPH (5 knots; 2.6 m/s)
Visibility: 15 miles (24 km)
Ceiling: 4100 feet AGL
Clouds: overcast cloud deck at 4100 feet AGL
Weather: no significant weather observed at this time

METAR text: CYYF 291200Z 03004KT 350V060 15SM OVC042 M07/M15 A3010 RMK SC8 SLP216
Conditions at: CYYF (PENTICTON AIRPOR, BC, CA) observed 1200 UTC 29 November 2022
Temperature: -7.0°C (19°F)
Dewpoint: -15.0°C ( 5°F) [RH = 53%]
Pressure (altimeter): 30.10 inches Hg (1019.4 mb)
[Sea-level pressure: 1021.6 mb]
Winds: from the NNE (30 degrees) at 5 MPH (4 knots; 2.1 m/s)
Visibility: 15 miles (24 km)
Ceiling: 4200 feet AGL
Clouds: overcast cloud deck at 4200 feet AGL
Weather: no significant weather observed at this time

Forecast for: CYYF (PENTICTON AIRPOR, BC, CA)
Text: TAF CYYF 291240Z 2913/3001 VRB03KT P6SM BKN040
Forecast period: 1300 to 1400 UTC 29 November 2022
Forecast type: FROM: standard forecast or significant change
Winds: variable direction winds at 3 MPH (3 knots; 1.5 m/s)
Visibility: 6 or more miles (10+ km)
Ceiling: 4000 feet AGL
Clouds: broken clouds at 4000 feet AGL
Weather: no significant weather forecast for this period
Text: BECMG 2914/2916 17008KT
Forecast period: 1400 to 2000 UTC 29 November 2022
Forecast type: BECOMING: Conditions expected to become as follows by 1600 UTC 29 November 2022
Winds: from the S (170 degrees) at 9 MPH (8 knots; 4.1 m/s)
Visibility: 6 or more miles (10+ km)
Ceiling: 4000 feet AGL
Clouds: broken clouds at 4000 feet AGL
Weather: no significant weather forecast for this period
Text: FM292000 18015KT P6SM BKN040 OVC080
Forecast period: 2000 UTC 29 November 2022 to 0100 UTC 30 November 2022
Forecast type: FROM: standard forecast or significant change
Winds: from the S (180 degrees) at 17 MPH (15 knots; 7.7 m/s)
Visibility: 6 or more miles (10+ km)
Ceiling: 4000 feet AGL
Clouds: broken clouds at 4000 feet AGL
overcast cloud deck at 8000 feet AGL
Weather: no significant weather forecast for this period
Text: TEMPO 2920/3001 5SM -SN OVC030 RMK NXT FCST BY 291900Z
Forecast period: 2000 UTC 29 November 2022 to 0100 UTC 30 November 2022
Forecast type: TEMPORARY: The following changes expected for less than half the time period
Visibility: 5 miles (8 km)
Ceiling: 3000 feet AGL
Clouds: overcast cloud deck at 3000 feet AGL
Weather: -SN  (light snow)